Smiths Grove, KY (42171)

5:24 PM CDT on July 26, 2016 (GMT -0500)
Fordes Crossing | | Change Station

Elev 571 ft 36.93 °N, 86.30 °W | Updated 5 seconds ago

Scattered Clouds
Scattered Clouds
93.6 °F
Feels Like 108 °F
N
0.0
Wind Variable Wind from ESE
Gusts 0.0 mph

Today
High -- | Low -- °F
--% Chance of Precip.
Yesterday
High -- | Low -- °F
Precip. -- in
Pressure 29.97 in
Visibility 10.0 miles
Clouds Scattered Clouds 4900 ft
Scattered Clouds 5500 ft
Scattered Clouds 7500 ft
Heat Index 108 °F
Dew Point 77 °F
Humidity 58%
Rainfall 0.00 in
Snow Depth Not available.
5:45 AM 7:56 PM
Waning Gibbous, 50% visible
METAR KGLW 262215Z AUTO 00000KT 10SM SCT049 SCT055 SCT075 33/22 A2997 RMK AO2 T03320221 PWINO
Pressure 29.97 in
Visibility 10.0 miles
Clouds Scattered Clouds 4900 ft
Scattered Clouds 5500 ft
Scattered Clouds 7500 ft
Heat Index 108 °F
Dew Point 77 °F
Humidity 58%
Rainfall 0.00 in
Snow Depth Not available.
5:45 AM 7:56 PM
Waning Gibbous, 50% visible
METAR KGLW 262215Z AUTO 00000KT 10SM SCT049 SCT055 SCT075 33/22 A2997 RMK AO2 T03320221 PWINO

10-Day Weather Forecast

Almanac

Astronomy

Jul. 26, 2016 Rise Set
Actual Time
Civil Twilight
Nautical Twilight
Astronomical Twilight
Moon
Length of Visible Light
Length of Day
Tomorrow will be .
, % of the Moon is Illuminated

Today's Extremes

State Highs State Lows

Community

WunderPhotos

Upload Photos

1,927,717 photos uploaded!

WunderBlog® & News

Nearby

Air Quality

  Air Quality AQ Index Pollutant
Not available.

Snow Depth

Station Depth Elevation

Earthquake Activity

City Distance Mag. Time & Date
Minimum magnitude displayed is 2.5.

Coastal Water Temperatures

Place Temperature

Stations

Nearby Weather Stations

Station Location Temp. Windchill Dew Point Humidity Wind Precip. Elev Updated Type
                   

Watches & Warnings

There are currently no watches in effect.